Time;durP1;ratioP1;P1;durP2;ratioP2;P2;SDS_P1;SDS_P2;PMS_P1;PMS_P2;Temp;Humidity;BMP_temperature;BMP_pressure;BME280_temperature;BME280_humidity;BME280_pressure;Samples;Min_cycle;Max_cycle;Signal;HPM_P1;HPM_P2
2023/11/23 00:00:11;;;;;;;15.87;12.37;;;6.60;96.70;;;;;;6155693;23;20375;-70
2023/11/23 00:02:38;;;;;;;21.03;15.33;;;6.60;96.70;;;;;;6156168;23;20769;-70
2023/11/23 00:05:06;;;;;;;23.87;18.90;;;6.70;96.80;;;;;;6156029;23;20413;-70
2023/11/23 00:07:35;;;;;;;30.07;27.17;;;6.60;97.90;;;;;;6155720;23;20934;-70
2023/11/23 00:10:04;;;;;;;51.70;48.47;;;6.60;99.90;;;;;;6155788;23;20515;-70
2023/11/23 00:12:31;;;;;;;90.97;86.17;;;6.50;99.90;;;;;;6155744;23;20894;-70
2023/11/23 00:15:00;;;;;;;152.53;146.27;;;6.50;99.90;;;;;;6155725;23;20412;-70
2023/11/23 00:17:27;;;;;;;233.17;224.90;;;6.50;99.90;;;;;;6155747;23;20523;-70
2023/11/23 00:19:54;;;;;;;279.83;269.23;;;6.40;99.90;;;;;;6155824;23;20540;-70
2023/11/23 00:22:21;;;;;;;335.60;323.40;;;6.40;99.90;;;;;;6155732;23;20941;-70
2023/11/23 00:24:49;;;;;;;391.40;377.33;;;6.40;99.90;;;;;;6155544;23;20916;-70
2023/11/23 00:27:16;;;;;;;411.83;396.33;;;6.50;99.90;;;;;;6155786;23;20417;-70
2023/11/23 00:29:45;;;;;;;440.50;424.40;;;6.40;99.90;;;;;;6155477;23;20421;-70
2023/11/23 00:32:12;;;;;;;434.37;418.37;;;6.50;99.90;;;;;;6155909;23;20414;-70
2023/11/23 00:34:39;;;;;;;430.00;414.13;;;6.50;99.90;;;;;;6155328;23;20416;-70
2023/11/23 00:37:07;;;;;;;422.53;406.27;;;6.60;99.90;;;;;;6155212;23;20531;-70
2023/11/23 00:39:34;;;;;;;408.27;393.43;;;6.60;99.90;;;;;;6155605;23;20442;-70
2023/11/23 00:42:03;;;;;;;412.40;397.43;;;6.70;99.90;;;;;;6155257;23;20442;-70
2023/11/23 00:44:31;;;;;;;397.70;383.40;;;6.70;99.90;;;;;;6155276;23;20442;-70
2023/11/23 00:46:57;;;;;;;380.00;366.70;;;6.80;99.90;;;;;;6155813;23;20800;-70
2023/11/23 00:49:24;;;;;;;368.20;355.50;;;6.80;99.90;;;;;;6155613;23;20980;-70
2023/11/23 00:51:51;;;;;;;370.57;357.33;;;6.90;99.90;;;;;;6155424;23;20415;-70
2023/11/23 00:54:20;;;;;;;366.57;353.33;;;6.90;99.90;;;;;;6155790;23;20414;-70
2023/11/23 00:56:47;;;;;;;358.80;346.27;;;6.90;99.90;;;;;;6155120;23;20429;-70
2023/11/23 00:59:15;;;;;;;385.57;371.10;;;7.00;99.90;;;;;;6155161;23;20411;-70
2023/11/23 01:01:42;;;;;;;437.70;421.10;;;7.00;99.90;;;;;;6155623;23;20409;-70
2023/11/23 01:04:09;;;;;;;438.60;421.97;;;7.00;99.90;;;;;;6155420;23;20518;-70
2023/11/23 01:06:35;;;;;;;494.47;474.77;;;7.00;99.90;;;;;;6155490;23;20438;-70
2023/11/23 01:09:02;;;;;;;541.47;518.87;;;7.00;99.90;;;;;;6155268;23;20496;-70
2023/11/23 01:11:29;;;;;;;565.70;541.50;;;7.00;99.90;;;;;;6154806;23;20411;-70
2023/11/23 01:13:56;;;;;;;633.47;604.20;;;7.00;99.90;;;;;;6155277;23;20448;-70
2023/11/23 01:16:25;;;;;;;654.63;621.80;;;7.00;99.90;;;;;;6155279;23;20435;-70
2023/11/23 01:18:51;;;;;;;666.10;631.90;;;7.00;99.90;;;;;;6155667;23;20416;-70
2023/11/23 01:21:18;;;;;;;676.60;639.10;;;6.90;99.90;;;;;;6155310;23;20497;-70
2023/11/23 01:23:45;;;;;;;667.00;629.80;;;6.90;99.90;;;;;;6155238;23;20433;-70
2023/11/23 01:26:12;;;;;;;680.27;641.10;;;6.90;99.90;;;;;;6155077;23;20464;-70
2023/11/23 01:28:39;;;;;;;680.67;640.07;;;6.90;99.90;;;;;;6155180;23;20414;-70
2023/11/23 01:31:06;;;;;;;650.27;612.27;;;6.90;99.90;;;;;;6154817;23;20442;-70
2023/11/23 01:33:34;;;;;;;670.07;629.37;;;6.80;99.90;;;;;;6155218;23;20775;-70
2023/11/23 01:36:01;;;;;;;671.17;628.87;;;6.90;99.90;;;;;;6154656;23;20959;-70
2023/11/23 01:38:28;;;;;;;666.83;625.63;;;6.80;99.90;;;;;;6154873;23;20493;-70
2023/11/23 01:40:55;;;;;;;690.63;645.03;;;6.80;99.90;;;;;;6154754;23;20549;-70
2023/11/23 01:43:23;;;;;;;675.23;630.37;;;6.80;99.90;;;;;;6154801;23;20452;-70
2023/11/23 01:45:50;;;;;;;673.33;628.07;;;6.90;99.90;;;;;;6155248;23;20644;-70
2023/11/23 01:48:18;;;;;;;672.40;626.67;;;6.90;99.90;;;;;;6155198;23;20769;-70
2023/11/23 01:50:47;;;;;;;668.53;624.23;;;6.90;99.90;;;;;;6154918;23;20413;-70
2023/11/23 01:53:14;;;;;;;662.77;617.77;;;7.00;99.90;;;;;;6154431;23;20420;-70
2023/11/23 01:55:41;;;;;;;663.00;617.20;;;7.00;99.90;;;;;;6154612;23;20448;-70
2023/11/23 01:58:11;;;;;;;658.80;614.17;;;7.00;99.90;;;;;;6154672;23;20470;-70
2023/11/23 02:00:39;;;;;;;646.50;603.37;;;7.00;99.90;;;;;;6154925;23;20506;-70
2023/11/23 02:03:06;;;;;;;653.70;607.50;;;7.00;99.90;;;;;;6154564;23;20450;-70
2023/11/23 02:05:33;;;;;;;648.93;603.27;;;7.10;99.90;;;;;;6154690;23;20453;-70
2023/11/23 02:08:01;;;;;;;659.13;612.20;;;7.10;99.90;;;;;;6155001;23;20485;-70
2023/11/23 02:10:28;;;;;;;672.57;623.87;;;7.10;99.90;;;;;;6154514;23;20442;-70
2023/11/23 02:12:56;;;;;;;685.63;635.77;;;7.10;99.90;;;;;;6154637;23;20478;-70
2023/11/23 02:15:23;;;;;;;682.57;632.67;;;7.10;99.90;;;;;;6154575;23;20469;-70
2023/11/23 02:18:01;;;;;;;695.00;642.37;;;7.10;99.90;;;;;;6154243;23;20970;-70
2023/11/23 02:20:28;;;;;;;677.67;626.57;;;7.10;99.90;;;;;;6154497;23;20891;-71
2023/11/23 02:22:55;;;;;;;688.00;635.50;;;7.10;99.90;;;;;;6154632;23;20914;-71
2023/11/23 02:25:25;;;;;;;688.73;636.20;;;7.10;99.90;;;;;;6154870;23;20464;-71
2023/11/23 02:27:52;;;;;;;702.70;649.23;;;7.10;99.90;;;;;;6154427;23;20963;-71
2023/11/23 02:30:19;;;;;;;705.83;653.47;;;7.10;99.90;;;;;;6154731;23;20417;-71
2023/11/23 02:32:46;;;;;;;711.07;657.67;;;7.20;99.90;;;;;;6154497;23;20415;-71
2023/11/23 02:35:13;;;;;;;702.60;649.80;;;7.20;99.90;;;;;;6154408;23;20917;-71
2023/11/23 02:37:41;;;;;;;713.97;661.87;;;7.20;99.90;;;;;;6154798;23;20465;-71
2023/11/23 02:40:10;;;;;;;726.30;673.20;;;7.20;99.90;;;;;;6154866;23;20802;-71
2023/11/23 02:42:39;;;;;;;723.03;671.07;;;7.20;99.90;;;;;;6154577;23;20420;-71
2023/11/23 02:45:08;;;;;;;723.87;672.37;;;7.20;99.90;;;;;;6154840;23;20416;-71
2023/11/23 02:47:35;;;;;;;726.87;675.00;;;7.20;99.90;;;;;;6154916;23;20411;-71
2023/11/23 02:50:02;;;;;;;723.07;671.33;;;7.30;99.90;;;;;;6154014;23;20916;-71
2023/11/23 02:52:29;;;;;;;707.37;657.43;;;7.30;99.90;;;;;;6154476;23;20413;-71
2023/11/23 02:54:56;;;;;;;710.27;660.23;;;7.30;99.90;;;;;;6154544;23;20453;-71
2023/11/23 02:57:23;;;;;;;706.00;656.40;;;7.30;99.90;;;;;;6154712;23;20923;-71
2023/11/23 02:59:51;;;;;;;715.30;665.10;;;7.40;99.90;;;;;;6154535;23;20435;-71
2023/11/23 03:02:18;;;;;;;708.43;659.33;;;7.40;99.90;;;;;;6154266;23;20416;-71
2023/11/23 03:04:45;;;;;;;687.50;639.50;;;7.40;99.90;;;;;;6154930;23;20820;-71
2023/11/23 03:07:12;;;;;;;680.70;633.70;;;7.40;99.90;;;;;;6156093;23;20943;-71
2023/11/23 03:09:39;;;;;;;683.87;636.37;;;7.50;99.90;;;;;;6156576;23;20945;-70
2023/11/23 03:12:07;;;;;;;670.70;624.00;;;7.50;99.90;;;;;;6156457;23;20803;-71
2023/11/23 03:14:34;;;;;;;668.83;623.10;;;7.50;99.90;;;;;;6156124;23;20980;-71
2023/11/23 03:17:03;;;;;;;665.83;620.60;;;7.60;99.90;;;;;;6156680;23;20815;-70
2023/11/23 03:19:30;;;;;;;660.97;617.07;;;7.60;99.90;;;;;;6156393;23;20417;-71
2023/11/23 03:21:57;;;;;;;666.50;622.03;;;7.60;99.90;;;;;;6156112;23;20417;-71
2023/11/23 03:24:24;;;;;;;665.97;621.90;;;7.60;99.90;;;;;;6156757;23;20420;-71
2023/11/23 03:26:51;;;;;;;664.40;621.10;;;7.60;99.90;;;;;;6156253;23;20948;-70
2023/11/23 03:29:17;;;;;;;663.60;621.00;;;7.70;99.90;;;;;;6156081;23;20494;-70
2023/11/23 03:31:51;;;;;;;665.87;622.47;;;7.70;99.90;;;;;;6156353;23;20418;-70
2023/11/23 03:34:20;;;;;;;655.50;613.73;;;7.70;99.90;;;;;;6156309;23;20412;-71
2023/11/23 03:36:47;;;;;;;648.57;607.77;;;7.70;99.90;;;;;;6156127;23;20486;-70
2023/11/23 03:39:14;;;;;;;637.17;595.97;;;7.70;99.90;;;;;;6156056;23;20416;-71
2023/11/23 03:41:40;;;;;;;640.37;599.77;;;7.70;99.90;;;;;;6155790;23;20486;-71
2023/11/23 03:44:07;;;;;;;646.90;606.40;;;7.70;99.90;;;;;;6155771;23;20489;-71
2023/11/23 03:46:34;;;;;;;652.87;611.27;;;7.70;99.90;;;;;;6155902;23;20452;-71
2023/11/23 03:49:01;;;;;;;656.77;615.47;;;7.70;99.90;;;;;;6155657;23;20451;-71
2023/11/23 03:51:30;;;;;;;656.10;615.67;;;7.70;99.90;;;;;;6155553;23;20449;-71
2023/11/23 03:53:57;;;;;;;683.90;640.67;;;7.80;99.90;;;;;;6155675;23;20446;-70
2023/11/23 03:56:24;;;;;;;696.97;651.57;;;7.80;99.90;;;;;;6156224;23;20417;-70
2023/11/23 03:58:51;;;;;;;705.33;660.23;;;7.80;99.90;;;;;;6156088;23;20487;-70
2023/11/23 04:01:18;;;;;;;703.07;658.27;;;7.80;99.90;;;;;;6155933;23;20443;-70
2023/11/23 04:03:45;;;;;;;704.13;658.27;;;7.80;99.90;;;;;;6156095;23;20450;-70
2023/11/23 04:06:12;;;;;;;702.83;657.90;;;7.90;99.90;;;;;;6155803;23;20440;-70
2023/11/23 04:08:41;;;;;;;691.13;646.57;;;7.90;99.90;;;;;;6155888;23;20814;-71
2023/11/23 04:11:10;;;;;;;732.60;686.57;;;7.90;99.90;;;;;;6155634;23;20441;-71
2023/11/23 04:13:37;;;;;;;702.23;657.97;;;7.90;99.90;;;;;;6156092;23;20618;-70
2023/11/23 04:16:04;;;;;;;700.30;656.17;;;8.00;99.90;;;;;;6155726;23;20450;-71
2023/11/23 04:18:31;;;;;;;703.33;657.77;;;8.00;99.90;;;;;;6155286;23;20444;-70
2023/11/23 04:20:58;;;;;;;721.27;676.17;;;8.00;99.90;;;;;;6155017;23;20915;-70
2023/11/23 04:23:25;;;;;;;724.93;680.33;;;8.00;99.90;;;;;;6154254;23;20498;-71
2023/11/23 04:25:53;;;;;;;714.50;670.23;;;8.00;99.90;;;;;;6155401;23;20448;-70
2023/11/23 04:28:20;;;;;;;712.70;668.17;;;8.10;99.90;;;;;;6155346;23;20496;-70
2023/11/23 04:30:47;;;;;;;728.27;683.07;;;8.10;99.90;;;;;;6155799;23;20495;-71
2023/11/23 04:33:15;;;;;;;735.87;689.20;;;8.10;99.90;;;;;;6155477;23;20418;-71
2023/11/23 04:35:41;;;;;;;713.53;668.33;;;8.10;99.90;;;;;;6155092;23;20420;-70
2023/11/23 04:38:08;;;;;;;706.93;662.37;;;8.10;99.90;;;;;;6155347;23;20470;-71
2023/11/23 04:40:35;;;;;;;723.03;677.17;;;8.10;99.90;;;;;;6155618;23;20496;-71
2023/11/23 04:43:05;;;;;;;728.87;683.07;;;8.10;99.90;;;;;;6155753;23;20754;-71
2023/11/23 04:45:32;;;;;;;724.20;678.83;;;8.20;99.90;;;;;;6155670;23;20464;-71
2023/11/23 04:47:59;;;;;;;720.83;675.03;;;8.20;99.90;;;;;;6155725;23;20419;-70
2023/11/23 04:50:25;;;;;;;707.30;663.50;;;8.20;99.90;;;;;;6155024;23;20509;-71
2023/11/23 04:52:52;;;;;;;724.47;679.23;;;8.20;99.90;;;;;;6155378;23;20469;-70
2023/11/23 04:55:20;;;;;;;727.40;682.00;;;8.20;99.90;;;;;;6154468;23;20423;-71
2023/11/23 04:57:47;;;;;;;726.30;680.03;;;8.20;99.90;;;;;;6154947;23;20528;-70
2023/11/23 05:00:21;;;;;;;714.63;668.67;;;8.20;99.90;;;;;;6155316;23;20418;-70
2023/11/23 05:02:48;;;;;;;729.33;682.63;;;8.20;99.90;;;;;;6155018;23;20858;-70
2023/11/23 05:05:15;;;;;;;717.63;672.57;;;8.30;99.90;;;;;;6155112;23;20455;-71
2023/11/23 05:07:42;;;;;;;732.07;684.67;;;8.20;99.90;;;;;;6155164;23;20408;-70
2023/11/23 05:10:09;;;;;;;728.73;681.97;;;8.30;99.90;;;;;;6155301;23;20551;-70
2023/11/23 05:12:36;;;;;;;717.37;671.00;;;8.20;99.90;;;;;;6155559;23;20489;-70
2023/11/23 05:15:04;;;;;;;721.80;675.03;;;8.30;99.90;;;;;;6155384;23;20491;-70
2023/11/23 05:17:33;;;;;;;718.63;672.07;;;8.30;99.90;;;;;;6155299;23;20494;-70
2023/11/23 05:20:01;;;;;;;711.00;664.47;;;8.30;99.90;;;;;;6154980;23;20461;-70
2023/11/23 05:22:28;;;;;;;687.87;642.63;;;8.40;99.90;;;;;;6155062;23;20448;-71
2023/11/23 05:24:56;;;;;;;690.50;644.87;;;8.30;99.90;;;;;;6155443;23;20453;-71
2023/11/23 05:27:22;;;;;;;700.27;655.07;;;8.40;99.90;;;;;;6154600;23;20411;-70
2023/11/23 05:29:49;;;;;;;705.60;659.10;;;8.40;99.90;;;;;;6154949;23;20499;-72
2023/11/23 05:32:16;;;;;;;689.43;644.33;;;8.40;99.90;;;;;;6155041;23;20480;-70
2023/11/23 05:34:45;;;;;;;699.60;653.80;;;8.40;99.90;;;;;;6154881;23;20488;-70
2023/11/23 05:37:12;;;;;;;689.27;643.17;;;8.40;99.90;;;;;;6155348;23;20831;-70
2023/11/23 05:39:39;;;;;;;712.40;665.30;;;8.50;99.90;;;;;;6164613;23;20421;-70
2023/11/23 05:42:06;;;;;;;670.53;626.97;;;8.50;99.90;;;;;;6154771;23;20499;-71
2023/11/23 05:44:33;;;;;;;692.40;646.93;;;8.50;99.90;;;;;;6154977;23;20478;-70
2023/11/23 05:47:00;;;;;;;693.97;647.67;;;8.50;99.90;;;;;;6155343;23;20409;-70
2023/11/23 05:49:27;;;;;;;674.37;629.07;;;8.50;99.90;;;;;;6155285;23;20736;-70
2023/11/23 05:51:55;;;;;;;666.23;622.30;;;8.50;99.90;;;;;;6155370;23;20425;-71
2023/11/23 05:54:22;;;;;;;661.83;618.67;;;8.60;99.90;;;;;;6155284;23;20739;-71
2023/11/23 05:56:49;;;;;;;654.90;611.13;;;8.60;99.90;;;;;;6155122;23;20444;-71
2023/11/23 05:59:16;;;;;;;667.70;624.37;;;8.60;99.90;;;;;;6154771;23;20444;-70
2023/11/23 06:01:43;;;;;;;672.80;629.03;;;8.60;99.90;;;;;;6155506;23;20449;-70
2023/11/23 06:04:10;;;;;;;674.07;631.77;;;8.60;99.90;;;;;;6155412;23;20783;-70
2023/11/23 06:06:37;;;;;;;653.03;610.47;;;8.60;99.90;;;;;;6155190;23;20495;-70
2023/11/23 06:09:05;;;;;;;652.57;611.27;;;8.60;99.90;;;;;;6154784;23;20962;-71
2023/11/23 06:11:33;;;;;;;660.03;618.00;;;8.60;99.90;;;;;;6155260;23;20508;-71
2023/11/23 06:14:00;;;;;;;659.50;616.77;;;8.70;99.90;;;;;;6155156;23;20886;-71
2023/11/23 06:16:27;;;;;;;655.13;612.70;;;8.60;99.90;;;;;;6155017;23;20409;-70
2023/11/23 06:18:53;;;;;;;629.63;588.87;;;8.70;99.90;;;;;;6154532;23;20784;-70
2023/11/23 06:21:21;;;;;;;640.03;598.77;;;8.70;99.90;;;;;;6154795;23;20914;-71
2023/11/23 06:23:48;;;;;;;631.53;592.13;;;8.70;99.90;;;;;;6155239;23;20412;-70
2023/11/23 06:26:20;;;;;;;633.23;593.13;;;8.80;99.90;;;;;;6154789;23;20412;-71
2023/11/23 06:28:47;;;;;;;649.23;608.33;;;8.80;99.90;;;;;;6154475;23;20428;-70
2023/11/23 06:31:14;;;;;;;662.58;618.97;;;8.80;99.90;;;;;;6153970;23;20440;-70
2023/11/23 06:33:41;;;;;;;648.77;607.30;;;8.80;99.90;;;;;;6154508;23;20256;-70
2023/11/23 06:36:10;;;;;;;652.63;610.73;;;8.80;99.90;;;;;;6154336;23;20422;-71
2023/11/23 06:38:36;;;;;;;639.17;598.13;;;8.80;99.90;;;;;;6154588;23;20439;-71
2023/11/23 06:41:05;;;;;;;631.63;591.17;;;8.80;99.90;;;;;;6156309;23;20494;-70
2023/11/23 06:43:33;;;;;;;643.47;602.13;;;8.80;99.90;;;;;;6156588;23;20729;-70
2023/11/23 06:46:00;;;;;;;637.63;596.60;;;8.80;99.90;;;;;;6156476;23;20415;-70
2023/11/23 06:48:27;;;;;;;644.30;602.93;;;8.80;99.90;;;;;;6155942;23;20959;-70
2023/11/23 06:50:54;;;;;;;635.73;594.43;;;8.80;99.90;;;;;;6156185;23;20413;-70
2023/11/23 06:53:21;;;;;;;639.53;599.70;;;8.80;99.90;;;;;;6156766;23;20417;-70
2023/11/23 06:55:48;;;;;;;637.03;597.03;;;8.80;99.90;;;;;;6156180;23;20475;-71
2023/11/23 06:58:15;;;;;;;622.03;583.87;;;8.80;99.90;;;;;;6156051;23;20516;-70
2023/11/23 07:00:43;;;;;;;619.30;581.43;;;8.80;99.90;;;;;;6156806;23;20445;-71
2023/11/23 07:03:11;;;;;;;617.07;579.13;;;8.90;99.90;;;;;;6156256;23;20496;-71
2023/11/23 07:05:38;;;;;;;615.73;577.43;;;8.90;99.90;;;;;;6156127;23;20415;-70
2023/11/23 07:08:05;;;;;;;612.73;575.43;;;8.90;99.90;;;;;;6156446;23;20494;-71
2023/11/23 07:10:33;;;;;;;619.53;581.50;;;8.90;99.90;;;;;;6156082;23;20496;-70
2023/11/23 07:13:01;;;;;;;612.90;576.47;;;8.90;99.90;;;;;;6156754;23;20416;-71
2023/11/23 07:15:28;;;;;;;601.77;564.77;;;8.90;99.90;;;;;;6156266;23;20432;-70
2023/11/23 07:17:58;;;;;;;599.17;563.67;;;9.00;99.90;;;;;;6156263;23;20436;-70
2023/11/23 07:20:25;;;;;;;613.95;575.05;;;9.00;99.90;;;;;;6156328;23;20420;-70
2023/11/23 07:22:52;;;;;;;596.97;561.07;;;9.00;99.90;;;;;;6156729;23;20186;-70
2023/11/23 07:25:19;;;;;;;600.57;564.50;;;9.00;99.90;;;;;;6156810;23;20420;-70
2023/11/23 07:27:46;;;;;;;587.27;552.97;;;9.00;99.90;;;;;;6156588;23;20795;-70
2023/11/23 07:30:14;;;;;;;585.73;551.47;;;9.10;99.90;;;;;;6155953;23;20421;-71
2023/11/23 07:32:41;;;;;;;570.60;536.97;;;9.10;99.90;;;;;;6156011;23;20409;-71
2023/11/23 07:35:09;;;;;;;582.10;548.50;;;9.10;99.90;;;;;;6156299;23;20472;-71
2023/11/23 07:37:36;;;;;;;584.93;549.83;;;9.20;99.90;;;;;;6155955;23;20472;-71
2023/11/23 07:40:12;;;;;;;587.03;552.23;;;9.20;99.90;;;;;;6156255;23;20946;-71
2023/11/23 07:42:39;;;;;;;586.53;552.43;;;9.30;99.90;;;;;;6156253;23;20404;-71
2023/11/23 07:45:07;;;;;;;575.90;543.10;;;9.30;99.90;;;;;;6156259;23;20422;-71
2023/11/23 07:47:34;;;;;;;584.70;552.07;;;9.40;99.90;;;;;;6156388;23;20487;-71
2023/11/23 07:50:01;;;;;;;570.50;538.60;;;9.40;99.90;;;;;;6155691;23;20883;-71
2023/11/23 07:52:30;;;;;;;573.63;542.37;;;9.40;99.90;;;;;;6156156;23;20804;-71
2023/11/23 07:54:56;;;;;;;569.97;538.90;;;9.50;99.90;;;;;;6155700;23;20930;-71
2023/11/23 07:57:23;;;;;;;569.00;538.10;;;9.50;99.90;;;;;;6156075;23;20484;-71
2023/11/23 07:59:56;;;;;;;561.77;531.80;;;9.50;99.90;;;;;;6156053;23;20527;-71
2023/11/23 08:02:23;;;;;;;558.47;528.77;;;9.50;99.90;;;;;;6156302;23;20787;-71
2023/11/23 08:04:51;;;;;;;563.83;534.07;;;9.60;99.90;;;;;;6156192;23;20410;-71
2023/11/23 08:07:17;;;;;;;556.67;527.17;;;9.60;99.90;;;;;;6155830;23;20410;-71
2023/11/23 08:09:46;;;;;;;554.30;525.93;;;9.60;99.90;;;;;;6156005;23;20419;-71
2023/11/23 08:12:13;;;;;;;546.07;518.37;;;9.60;99.90;;;;;;6155654;23;20441;-71
2023/11/23 08:14:40;;;;;;;543.70;515.70;;;9.60;99.90;;;;;;6156065;23;20773;-71
2023/11/23 08:17:06;;;;;;;544.43;516.37;;;9.70;99.90;;;;;;6155605;23;20497;-71
2023/11/23 08:19:33;;;;;;;531.77;505.47;;;9.60;99.90;;;;;;6155749;23;20442;-71
2023/11/23 08:22:00;;;;;;;540.60;513.63;;;9.60;99.90;;;;;;6154444;23;21026;-71
2023/11/23 08:24:27;;;;;;;526.40;501.10;;;9.80;99.90;;;;;;6155449;23;20437;-71
2023/11/23 08:26:55;;;;;;;528.90;502.77;;;9.80;99.90;;;;;;6155050;23;20410;-71
2023/11/23 08:29:22;;;;;;;515.10;490.50;;;9.80;99.90;;;;;;6155255;23;20412;-71
2023/11/23 08:31:51;;;;;;;505.37;481.67;;;9.90;99.90;;;;;;6155307;23;20470;-71
2023/11/23 08:34:17;;;;;;;502.23;479.23;;;10.00;99.90;;;;;;6155556;23;20474;-71
2023/11/23 08:36:44;;;;;;;480.53;458.60;;;10.00;99.90;;;;;;6155371;23;20758;-71
2023/11/23 08:39:12;;;;;;;481.40;459.67;;;10.00;99.90;;;;;;6154685;23;20470;-71
2023/11/23 08:41:39;;;;;;;473.47;451.47;;;10.00;99.90;;;;;;6154660;23;20422;-71
2023/11/23 08:44:07;;;;;;;482.83;461.47;;;9.90;99.90;;;;;;6154906;23;20498;-71
2023/11/23 08:46:35;;;;;;;488.60;465.40;;;9.90;99.90;;;;;;6155062;23;20411;-71
2023/11/23 08:49:02;;;;;;;487.33;465.23;;;9.90;99.90;;;;;;6154703;23;20658;-71
2023/11/23 08:51:29;;;;;;;499.27;476.37;;;9.90;99.90;;;;;;6155244;23;20416;-71
2023/11/23 08:53:56;;;;;;;494.17;472.17;;;9.90;99.90;;;;;;6155532;23;20643;-71
2023/11/23 08:56:23;;;;;;;490.90;469.20;;;10.00;99.90;;;;;;6154217;23;20507;-71
2023/11/23 08:58:50;;;;;;;512.88;489.58;;;10.00;99.90;;;;;;6153996;23;20417;-71
2023/11/23 09:01:18;;;;;;;498.03;475.40;;;10.10;99.90;;;;;;6154852;23;20193;-71
2023/11/23 09:03:46;;;;;;;471.30;451.37;;;10.20;99.90;;;;;;6155041;23;20418;-71
2023/11/23 09:06:13;;;;;;;469.93;449.63;;;10.30;99.90;;;;;;6155204;23;20410;-71
2023/11/23 09:08:41;;;;;;;448.40;429.80;;;10.30;99.90;;;;;;6155278;23;20471;-70
2023/11/23 09:11:08;;;;;;;438.97;421.07;;;10.40;99.90;;;;;;6155181;23;20413;-71
2023/11/23 09:13:35;;;;;;;395.70;379.90;;;10.50;99.90;;;;;;6155076;23;20412;-70
2023/11/23 09:16:03;;;;;;;383.37;368.03;;;10.40;99.90;;;;;;6155170;23;20422;-72
2023/11/23 09:18:32;;;;;;;359.57;345.23;;;10.50;99.90;;;;;;6155516;23;20475;-71
2023/11/23 09:20:59;;;;;;;334.37;321.17;;;10.50;99.90;;;;;;6155777;23;20419;-71
2023/11/23 09:23:27;;;;;;;331.13;318.13;;;10.50;99.90;;;;;;6155371;23;20960;-71
2023/11/23 09:25:54;;;;;;;345.70;332.60;;;10.50;99.90;;;;;;6155254;23;20445;-71
2023/11/23 09:28:22;;;;;;;347.20;333.33;;;10.50;99.90;;;;;;6155049;23;20420;-70
2023/11/23 09:30:49;;;;;;;348.80;334.77;;;10.50;99.90;;;;;;6155139;23;20412;-70
2023/11/23 09:33:17;;;;;;;365.43;351.47;;;10.50;99.90;;;;;;6155059;23;20559;-70
2023/11/23 09:35:45;;;;;;;353.97;339.87;;;10.60;99.90;;;;;;6155576;23;20421;-70
2023/11/23 09:38:12;;;;;;;344.53;330.83;;;10.70;99.90;;;;;;6155200;23;20441;-70
2023/11/23 09:40:39;;;;;;;319.00;306.53;;;10.70;99.90;;;;;;6155493;23;20893;-71
2023/11/23 09:43:06;;;;;;;333.53;320.80;;;10.70;99.90;;;;;;6155913;23;20452;-71
2023/11/23 09:45:33;;;;;;;305.60;293.87;;;10.80;99.90;;;;;;6155311;23;20445;-71
2023/11/23 09:48:01;;;;;;;272.50;261.53;;;10.90;99.90;;;;;;6155810;23;20417;-71
2023/11/23 09:50:29;;;;;;;249.53;239.63;;;10.90;99.90;;;;;;6155463;23;20412;-71
2023/11/23 09:52:57;;;;;;;236.23;227.30;;;10.80;99.90;;;;;;6155868;23;20496;-70
2023/11/23 09:55:26;;;;;;;237.20;227.57;;;10.80;99.90;;;;;;6155504;23;20421;-70
2023/11/23 09:57:53;;;;;;;229.43;220.73;;;10.90;99.90;;;;;;6155574;23;20441;-70
2023/11/23 10:00:21;;;;;;;223.63;215.00;;;11.00;99.90;;;;;;6155460;23;20751;-70
2023/11/23 10:02:55;;;;;;;213.17;204.97;;;11.00;99.90;;;;;;6155445;23;20409;-70
2023/11/23 10:05:23;;;;;;;205.80;197.73;;;11.10;99.90;;;;;;6154822;23;20728;-70
2023/11/23 10:07:52;;;;;;;193.40;185.53;;;11.10;99.90;;;;;;6155036;23;20436;-71
2023/11/23 10:10:20;;;;;;;173.13;165.97;;;11.10;99.90;;;;;;6154588;23;20786;-71
2023/11/23 10:12:48;;;;;;;165.17;158.10;;;11.00;99.90;;;;;;6154392;23;20469;-71
2023/11/23 10:15:15;;;;;;;174.10;166.43;;;11.00;99.90;;;;;;6154439;23;20498;-71
2023/11/23 10:17:42;;;;;;;187.80;180.53;;;11.00;99.90;;;;;;6154931;23;20412;-70
2023/11/23 10:20:12;;;;;;;186.00;178.60;;;11.00;99.90;;;;;;6155251;23;20520;-70
2023/11/23 10:22:43;;;;;;;164.77;158.30;;;11.10;99.90;;;;;;6155881;23;20716;-71
2023/11/23 10:25:10;;;;;;;149.77;143.37;;;11.00;99.90;;;;;;6155698;23;20719;-71
2023/11/23 10:27:39;;;;;;;170.67;163.87;;;11.00;99.90;;;;;;6155489;23;20448;-71
2023/11/23 10:30:08;;;;;;;162.83;156.30;;;11.10;99.90;;;;;;6155411;23;20475;-71
2023/11/23 10:32:36;;;;;;;173.73;166.37;;;11.00;99.90;;;;;;6155651;23;20456;-71
2023/11/23 10:35:09;;;;;;;175.97;168.67;;;11.00;99.90;;;;;;6155119;23;20413;-71
2023/11/23 10:37:39;;;;;;;171.77;164.73;;;11.00;99.90;;;;;;6155731;23;20397;-71
2023/11/23 10:40:08;;;;;;;188.13;180.77;;;10.90;99.90;;;;;;6155019;23;20425;-71
2023/11/23 10:42:36;;;;;;;223.33;215.13;;;10.80;99.90;;;;;;6155181;23;20453;-73
2023/11/23 10:45:07;;;;;;;248.70;239.60;;;10.90;99.90;;;;;;6155457;23;20443;-72
2023/11/23 10:47:36;;;;;;;270.63;260.63;;;10.90;99.90;;;;;;6155654;23;20441;-72
2023/11/23 10:50:05;;;;;;;255.33;246.33;;;10.90;99.90;;;;;;6155029;23;20437;-71
2023/11/23 10:52:34;;;;;;;246.33;237.33;;;10.80;99.90;;;;;;6154824;23;20416;-71
2023/11/23 10:55:01;;;;;;;262.07;252.33;;;10.90;99.90;;;;;;6153827;23;20995;-71
2023/11/23 10:57:29;;;;;;;256.67;247.40;;;10.90;99.90;;;;;;6154903;23;20438;-71
2023/11/23 10:59:57;;;;;;;252.17;243.13;;;10.90;99.90;;;;;;6154709;23;20519;-71
2023/11/23 11:02:26;;;;;;;258.57;249.73;;;10.90;99.90;;;;;;6154199;23;20492;-72
2023/11/23 11:04:58;;;;;;;275.30;265.60;;;11.00;99.90;;;;;;6152938;23;20417;-72
2023/11/23 11:07:27;;;;;;;291.60;281.23;;;11.00;99.90;;;;;;6153394;23;20455;-72
2023/11/23 11:10:00;;;;;;;267.53;258.00;;;11.10;99.90;;;;;;6153822;23;20409;-72
2023/11/23 11:12:37;;;;;;;239.57;231.13;;;11.10;99.90;;;;;;6154530;23;20484;-72
2023/11/23 11:15:06;;;;;;;224.60;216.57;;;11.20;99.90;;;;;;6154436;23;20451;-72
2023/11/23 11:17:38;;;;;;;215.37;207.53;;;11.20;99.90;;;;;;6154384;23;20503;-72
2023/11/23 11:20:08;;;;;;;199.97;192.40;;;11.20;99.90;;;;;;6153789;23;20436;-72
2023/11/23 11:22:35;;;;;;;191.70;184.53;;;11.20;99.90;;;;;;6163560;23;20417;-72
2023/11/23 11:25:02;;;;;;;191.97;185.20;;;11.30;99.90;;;;;;6153473;23;20901;-72
2023/11/23 11:27:30;;;;;;;217.87;210.17;;;11.20;99.90;;;;;;6155712;23;20414;-72
2023/11/23 11:29:59;;;;;;;189.90;183.10;;;11.30;99.90;;;;;;6155971;23;20405;-72
2023/11/23 11:32:33;;;;;;;203.60;196.70;;;11.30;99.90;;;;;;6156046;23;20412;-72
2023/11/23 11:35:03;;;;;;;192.23;184.83;;;11.30;99.90;;;;;;6155621;23;20397;-73
2023/11/23 11:37:32;;;;;;;179.17;172.47;;;11.30;99.90;;;;;;6155858;23;20420;-72
2023/11/23 11:40:00;;;;;;;145.47;139.80;;;11.40;99.90;;;;;;6155854;23;20491;-72
2023/11/23 11:42:29;;;;;;;140.90;135.30;;;11.40;99.90;;;;;;6155924;23;20785;-72
2023/11/23 11:44:55;;;;;;;139.23;133.67;;;11.40;99.90;;;;;;6155888;23;20417;-72
2023/11/23 11:47:23;;;;;;;131.10;125.97;;;11.50;99.90;;;;;;6156010;23;20930;-72
2023/11/23 11:49:50;;;;;;;137.77;132.13;;;11.50;99.90;;;;;;6154800;23;20406;-72
2023/11/23 11:52:19;;;;;;;110.13;105.47;;;11.60;99.90;;;;;;6154071;23;20420;-72
2023/11/23 11:54:46;;;;;;;113.57;109.17;;;11.60;99.90;;;;;;6153139;23;20453;-72
2023/11/23 11:57:14;;;;;;;103.53;98.53;;;11.70;99.90;;;;;;6154300;23;20394;-72
2023/11/23 11:59:44;;;;;;;60.20;57.20;;;11.80;99.90;;;;;;6154270;23;20781;-72
2023/11/23 12:02:10;;;;;;;56.33;53.40;;;11.80;99.90;;;;;;6154447;23;20410;-71
2023/11/23 12:04:39;;;;;;;58.78;55.67;;;11.80;99.90;;;;;;6153360;23;20492;-72
2023/11/23 12:07:13;;;;;;;80.60;76.70;;;11.80;99.90;;;;;;6154594;23;20416;-72
2023/11/23 12:09:41;;;;;;;38.23;35.83;;;11.90;99.90;;;;;;6156014;23;20468;-72
2023/11/23 12:12:10;;;;;;;29.43;27.63;;;11.80;99.90;;;;;;6155964;23;20437;-71
2023/11/23 12:14:37;;;;;;;30.70;28.77;;;11.80;99.90;;;;;;6156118;23;20410;-71
2023/11/23 12:17:10;;;;;;;30.17;27.70;;;11.80;99.90;;;;;;6156198;23;20416;-71